Time;durP1;ratioP1;P1;durP2;ratioP2;P2;SDS_P1;SDS_P2;PMS_P1;PMS_P2;Temp;Humidity;BMP_temperature;BMP_pressure;BME280_temperature;BME280_humidity;BME280_pressure;Samples;Min_cycle;Max_cycle;Signal;HPM_P1;HPM_P2
2021/07/11 00:02:07;;;;;;;6.65;3.13;;;18.20;99.90;;;;;;5032358;28;20021;-44
2021/07/11 00:04:33;;;;;;;6.28;3.05;;;18.20;99.90;;;;;;5032072;28;20498;-43
2021/07/11 00:06:59;;;;;;;5.80;3.22;;;18.20;99.90;;;;;;5031863;28;20060;-41
2021/07/11 00:09:24;;;;;;;5.18;2.70;;;18.20;99.90;;;;;;5031700;28;20390;-43
2021/07/11 00:11:50;;;;;;;8.13;3.30;;;18.10;99.90;;;;;;5032361;28;20111;-45
2021/07/11 00:14:16;;;;;;;4.97;2.70;;;18.10;99.90;;;;;;5032284;28;20025;-44
2021/07/11 00:16:41;;;;;;;8.20;2.92;;;18.20;99.90;;;;;;5032263;28;20028;-46
2021/07/11 00:19:07;;;;;;;3.45;2.85;;;18.20;99.90;;;;;;5032258;28;20550;-42
2021/07/11 00:21:32;;;;;;;8.60;2.78;;;18.10;99.90;;;;;;5032600;28;20079;-41
2021/07/11 00:23:58;;;;;;;4.90;3.45;;;18.20;99.90;;;;;;5031810;28;20112;-42
2021/07/11 00:26:23;;;;;;;4.50;3.15;;;18.20;99.90;;;;;;5031536;28;20469;-47
2021/07/11 00:28:49;;;;;;;7.70;2.85;;;18.20;99.90;;;;;;5031436;28;20030;-43
2021/07/11 00:31:14;;;;;;;3.70;3.00;;;18.20;99.90;;;;;;5031180;28;20022;-42
2021/07/11 00:33:41;;;;;;;5.70;3.08;;;18.10;99.90;;;;;;5031662;28;20022;-42
2021/07/11 00:36:06;;;;;;;4.75;2.70;;;18.10;99.90;;;;;;5031678;28;20029;-43
2021/07/11 00:38:32;;;;;;;6.28;3.10;;;18.20;99.90;;;;;;5031527;28;20025;-48
2021/07/11 00:40:58;;;;;;;5.60;2.78;;;18.30;99.90;;;;;;5031427;28;20398;-41
2021/07/11 00:43:24;;;;;;;6.43;3.30;;;18.20;99.90;;;;;;5031573;28;20025;-45
2021/07/11 00:45:49;;;;;;;4.05;2.35;;;18.20;99.90;;;;;;5031219;28;20208;-41
2021/07/11 00:48:17;;;;;;;5.68;2.90;;;18.20;99.90;;;;;;5031630;28;20390;-41
2021/07/11 00:50:43;;;;;;;3.47;2.60;;;18.20;99.90;;;;;;5031166;28;20026;-41
2021/07/11 00:53:10;;;;;;;4.78;2.75;;;18.20;99.90;;;;;;5031556;28;20032;-43
2021/07/11 00:55:36;;;;;;;4.30;2.67;;;18.20;99.90;;;;;;5031422;28;20147;-42
2021/07/11 00:58:03;;;;;;;7.13;3.65;;;18.30;99.90;;;;;;5031111;28;20033;-43
2021/07/11 01:00:29;;;;;;;5.55;2.45;;;18.30;99.90;;;;;;5030737;28;20021;-45
2021/07/11 01:03:08;;;;;;;13.20;3.25;;;18.20;99.90;;;;;;5031126;28;20431;-47
2021/07/11 01:05:35;;;;;;;4.78;2.80;;;18.10;99.90;;;;;;5031013;28;20264;-44
2021/07/11 01:08:13;;;;;;;3.53;2.45;;;18.10;99.90;;;;;;5030967;28;20017;-48
2021/07/11 01:10:46;;;;;;;9.90;2.38;;;18.10;99.90;;;;;;5030702;28;20047;-42
2021/07/11 01:13:19;;;;;;;10.95;2.15;;;18.10;99.90;;;;;;5031110;28;20021;-42
2021/07/11 01:15:51;;;;;;;3.45;2.03;;;18.00;99.90;;;;;;5030822;28;20037;-47
2021/07/11 01:18:19;;;;;;;5.78;2.20;;;18.00;99.90;;;;;;5030944;28;20100;-46
2021/07/11 01:20:49;;;;;;;7.50;2.45;;;18.00;99.90;;;;;;5030610;28;20028;-42
2021/07/11 01:23:34;;;;;;;6.82;1.98;;;18.00;99.90;;;;;;5030807;28;20509;-49
2021/07/11 01:26:02;;;;;;;8.77;1.85;;;17.90;99.90;;;;;;5030699;28;20025;-43
2021/07/11 01:28:27;;;;;;;4.72;1.80;;;17.90;99.90;;;;;;5045697;22;20491;-47
2021/07/11 01:30:54;;;;;;;7.13;3.65;;;17.90;99.90;;;;;;5010345;28;20057;-48
2021/07/11 01:33:22;;;;;;;7.10;2.78;;;17.90;99.90;;;;;;5030402;28;20501;-44
2021/07/11 01:35:49;;;;;;;5.80;2.00;;;17.90;99.90;;;;;;5030263;28;20030;-45
2021/07/11 01:38:16;;;;;;;2.67;2.10;;;17.90;99.90;;;;;;5030343;28;20049;-38
2021/07/11 01:40:42;;;;;;;11.80;3.65;;;17.90;99.90;;;;;;5029677;28;20028;-45
2021/07/11 01:43:09;;;;;;;5.70;2.13;;;17.90;99.90;;;;;;5030325;28;20100;-43
2021/07/11 01:45:35;;;;;;;2.90;2.65;;;17.90;99.90;;;;;;5030038;28;20033;-42
2021/07/11 01:48:01;;;;;;;5.88;1.83;;;17.90;99.90;;;;;;5030215;28;20113;-46
2021/07/11 01:50:28;;;;;;;7.68;2.13;;;17.90;99.90;;;;;;5029413;28;20025;-47
2021/07/11 01:52:54;;;;;;;9.10;2.88;;;17.90;99.90;;;;;;5030157;28;20025;-44
2021/07/11 01:55:21;;;;;;;5.30;2.85;;;17.90;99.90;;;;;;5030318;28;20037;-44
2021/07/11 01:57:49;;;;;;;8.52;2.05;;;17.90;99.90;;;;;;5034165;28;20041;-44
2021/07/11 02:00:15;;;;;;;3.13;1.90;;;17.80;99.90;;;;;;5033446;28;20029;-43
2021/07/11 02:02:42;;;;;;;9.85;2.00;;;17.80;99.90;;;;;;5032423;28;20025;-48
2021/07/11 02:05:10;;;;;;;13.52;2.42;;;17.70;99.90;;;;;;5034014;28;20495;-43
2021/07/11 02:07:35;;;;;;;3.38;1.40;;;17.70;99.90;;;;;;5033794;28;20037;-47
2021/07/11 02:10:13;;;;;;;3.17;1.92;;;17.80;99.90;;;;;;5033645;28;20026;-42
2021/07/11 02:12:54;;;;;;;8.65;2.42;;;17.70;99.90;;;;;;5033871;28;20443;-44
2021/07/11 02:15:19;;;;;;;7.43;2.70;;;17.70;99.90;;;;;;5034055;28;20159;-42
2021/07/11 02:17:48;;;;;;;3.88;2.28;;;17.70;99.90;;;;;;5034268;28;20491;-43
2021/07/11 02:20:14;;;;;;;9.00;2.35;;;17.70;99.90;;;;;;5033425;28;20063;-45
2021/07/11 02:22:43;;;;;;;8.65;2.22;;;17.70;99.90;;;;;;5033685;28;20030;-42
2021/07/11 02:25:10;;;;;;;6.13;1.77;;;17.70;99.90;;;;;;5033564;28;20021;-43
2021/07/11 02:27:37;;;;;;;8.13;2.15;;;17.60;99.90;;;;;;5033429;28;20127;-44
2021/07/11 02:30:10;;;;;;;3.42;2.17;;;17.60;99.90;;;;;;5032801;28;20028;-43
2021/07/11 02:32:35;;;;;;;8.95;2.70;;;17.70;99.90;;;;;;5033620;28;20018;-43
2021/07/11 02:35:01;;;;;;;5.43;2.33;;;17.60;99.90;;;;;;5033751;28;20028;-43
2021/07/11 02:37:28;;;;;;;10.55;2.30;;;17.60;99.90;;;;;;5015550;28;20033;-45
2021/07/11 02:39:56;;;;;;;3.28;2.00;;;17.60;99.90;;;;;;5033038;28;20033;-42
2021/07/11 02:42:22;;;;;;;3.13;2.03;;;17.60;99.90;;;;;;5033197;28;20075;-42
2021/07/11 02:44:52;;;;;;;6.55;2.20;;;17.60;99.90;;;;;;5033121;28;20109;-47
2021/07/11 02:47:28;;;;;;;5.03;2.35;;;17.60;99.90;;;;;;5033214;28;20025;-44
2021/07/11 02:49:58;;;;;;;7.45;3.17;;;17.60;99.90;;;;;;5032512;28;20402;-44
2021/07/11 02:52:25;;;;;;;5.30;2.03;;;17.60;99.90;;;;;;5033229;28;20024;-47
2021/07/11 02:55:08;;;;;;;6.35;2.47;;;17.60;99.90;;;;;;5033011;28;20022;-45
2021/07/11 02:57:36;;;;;;;9.45;2.25;;;17.60;99.90;;;;;;5016880;28;20017;-47
2021/07/11 03:00:05;;;;;;;5.13;1.92;;;17.70;99.90;;;;;;5032146;28;20068;-44
2021/07/11 03:02:33;;;;;;;6.65;2.20;;;17.70;99.90;;;;;;5032804;28;20144;-42
2021/07/11 03:04:59;;;;;;;7.25;2.42;;;17.70;99.90;;;;;;5032887;28;20485;-42
2021/07/11 03:07:25;;;;;;;9.18;2.38;;;17.60;99.90;;;;;;5032742;28;20087;-46
2021/07/11 03:09:50;;;;;;;5.07;2.30;;;17.60;99.90;;;;;;5032123;28;20037;-45
2021/07/11 03:12:17;;;;;;;19.30;3.38;;;17.60;99.90;;;;;;5032713;28;20037;-42
2021/07/11 03:14:47;;;;;;;7.18;2.40;;;17.50;99.90;;;;;;5032641;28;20040;-42
2021/07/11 03:17:14;;;;;;;9.52;2.70;;;17.60;99.90;;;;;;5032716;28;20398;-43
2021/07/11 03:19:41;;;;;;;8.43;2.38;;;17.50;99.90;;;;;;5013924;28;20052;-44
2021/07/11 03:22:07;;;;;;;11.05;4.70;;;17.50;99.90;;;;;;5032501;28;20029;-42
2021/07/11 03:24:35;;;;;;;10.38;2.47;;;17.50;99.90;;;;;;5014810;28;20448;-46
2021/07/11 03:27:00;;;;;;;6.40;2.72;;;17.50;99.90;;;;;;5032237;28;20037;-43
2021/07/11 03:29:39;;;;;;;8.32;2.55;;;17.50;99.90;;;;;;5031797;28;20397;-44
2021/07/11 03:32:07;;;;;;;4.07;2.80;;;17.50;99.90;;;;;;5030809;28;20022;-44
2021/07/11 03:34:33;;;;;;;10.23;2.65;;;17.40;99.90;;;;;;5032350;28;20013;-44
2021/07/11 03:37:08;;;;;;;6.22;3.00;;;17.40;99.90;;;;;;5032305;28;20036;-45
2021/07/11 03:39:38;;;;;;;13.70;3.13;;;17.30;99.90;;;;;;5031441;28;20108;-42
2021/07/11 03:42:07;;;;;;;9.80;2.80;;;17.40;99.90;;;;;;5032140;28;20387;-42
2021/07/11 03:44:34;;;;;;;8.35;2.95;;;17.40;99.90;;;;;;5032108;28;20509;-45
2021/07/11 03:47:03;;;;;;;4.82;2.40;;;17.30;99.90;;;;;;5031907;28;20576;-44
2021/07/11 03:49:30;;;;;;;7.85;2.60;;;17.40;99.90;;;;;;5031434;28;20029;-45
2021/07/11 03:52:03;;;;;;;6.88;3.00;;;17.40;99.90;;;;;;5031938;28;20029;-43
2021/07/11 03:54:31;;;;;;;6.22;2.53;;;17.40;99.90;;;;;;5032395;28;20498;-42
2021/07/11 03:56:58;;;;;;;5.75;2.47;;;17.40;99.90;;;;;;5031828;28;20029;-41
2021/07/11 03:59:25;;;;;;;9.40;2.83;;;17.40;99.90;;;;;;5031061;28;20036;-44
2021/07/11 04:01:52;;;;;;;9.60;2.58;;;17.40;99.90;;;;;;5031790;28;20037;-46
2021/07/11 04:04:21;;;;;;;11.98;3.22;;;17.40;99.90;;;;;;5031657;28;20075;-49
2021/07/11 04:06:51;;;;;;;10.68;3.30;;;17.40;99.90;;;;;;5031973;28;20029;-45
2021/07/11 04:09:20;;;;;;;7.60;3.03;;;17.40;99.90;;;;;;5031044;28;20112;-42
2021/07/11 04:11:47;;;;;;;5.88;2.63;;;17.40;99.90;;;;;;5031259;28;20448;-49
2021/07/11 04:14:20;;;;;;;11.18;3.38;;;17.40;99.90;;;;;;5013305;28;20044;-44
2021/07/11 04:16:50;;;;;;;7.38;2.92;;;17.40;99.90;;;;;;5030271;28;20108;-46
2021/07/11 04:19:26;;;;;;;8.10;4.10;;;17.30;99.90;;;;;;5023496;28;20033;-49
2021/07/11 04:21:53;;;;;;;8.23;3.00;;;17.40;99.90;;;;;;5029777;28;20040;-44
2021/07/11 04:24:20;;;;;;;20.77;3.25;;;17.40;99.90;;;;;;5020224;28;20029;-48
2021/07/11 04:26:47;;;;;;;14.48;2.85;;;17.40;99.90;;;;;;5030467;28;20091;-50
2021/07/11 04:29:13;;;;;;;8.05;3.17;;;17.40;99.90;;;;;;5029253;28;20386;-44
2021/07/11 04:31:38;;;;;;;10.07;3.95;;;17.40;99.90;;;;;;5013625;28;20040;-44
2021/07/11 04:34:29;;;;;;;10.63;4.28;;;17.40;99.90;;;;;;5022339;28;20021;-47
2021/07/11 04:36:56;;;;;;;7.05;3.25;;;17.40;99.90;;;;;;5012461;28;20034;-43
2021/07/11 04:39:22;;;;;;;5.45;3.38;;;17.40;99.90;;;;;;5022852;28;20043;-49
2021/07/11 04:41:48;;;;;;;6.57;3.60;;;17.30;99.90;;;;;;5030572;28;20038;-46
2021/07/11 04:44:14;;;;;;;16.85;3.67;;;17.30;99.90;;;;;;5026064;28;20570;-47
2021/07/11 04:46:39;;;;;;;12.25;5.03;;;17.30;99.90;;;;;;5030885;28;20025;-47
2021/07/11 04:49:05;;;;;;;9.90;4.03;;;17.30;99.90;;;;;;5029839;28;20021;-46
2021/07/11 04:51:32;;;;;;;9.25;3.90;;;17.30;99.90;;;;;;5030929;28;20554;-43
2021/07/11 04:53:58;;;;;;;11.45;4.07;;;17.40;99.90;;;;;;5021415;28;20033;-44
2021/07/11 04:56:23;;;;;;;11.70;4.63;;;17.40;99.90;;;;;;5021633;28;20080;-44
2021/07/11 04:58:49;;;;;;;12.40;3.90;;;17.40;99.90;;;;;;5016375;28;20030;-44
2021/07/11 05:01:15;;;;;;;20.73;4.57;;;17.40;99.90;;;;;;5011218;28;20042;-43
2021/07/11 05:03:40;;;;;;;8.55;3.88;;;17.40;99.90;;;;;;5010502;28;20026;-43
2021/07/11 05:06:06;;;;;;;10.65;4.40;;;17.30;99.90;;;;;;5011163;28;20405;-45
2021/07/11 05:08:31;;;;;;;8.10;4.40;;;17.30;99.90;;;;;;5011229;28;20068;-45
2021/07/11 05:10:57;;;;;;;5.43;4.18;;;17.40;99.90;;;;;;5010251;28;20088;-42
2021/07/11 05:13:22;;;;;;;11.02;4.68;;;17.40;99.90;;;;;;5011215;28;20461;-45
2021/07/11 05:15:48;;;;;;;10.20;4.40;;;17.40;99.90;;;;;;5011222;28;20022;-44
2021/07/11 05:18:14;;;;;;;11.90;5.13;;;17.50;99.90;;;;;;5011132;28;20026;-43
2021/07/11 05:20:39;;;;;;;7.40;4.03;;;17.50;99.90;;;;;;5010325;28;20045;-42
2021/07/11 05:23:05;;;;;;;10.02;5.07;;;17.50;99.90;;;;;;5011227;28;20030;-45
2021/07/11 05:25:32;;;;;;;11.55;4.88;;;17.50;99.90;;;;;;5010853;28;20030;-44
2021/07/11 05:28:04;;;;;;;6.03;4.03;;;17.50;99.90;;;;;;5010641;28;20088;-42
2021/07/11 05:30:30;;;;;;;12.70;4.57;;;17.50;99.90;;;;;;5009497;28;20050;-43
2021/07/11 05:32:56;;;;;;;14.45;4.38;;;17.50;99.90;;;;;;5010801;28;20399;-42
2021/07/11 05:35:22;;;;;;;20.40;4.93;;;17.50;99.90;;;;;;5010637;28;20030;-45
2021/07/11 05:37:47;;;;;;;8.57;4.32;;;17.50;99.90;;;;;;5010511;28;20029;-43
2021/07/11 05:40:15;;;;;;;8.88;4.72;;;17.50;99.90;;;;;;5009902;28;20113;-44
2021/07/11 05:42:44;;;;;;;20.38;5.93;;;17.40;99.90;;;;;;5010783;28;20026;-42
2021/07/11 05:45:11;;;;;;;13.77;5.35;;;17.50;99.90;;;;;;5010745;28;20455;-45
2021/07/11 05:47:38;;;;;;;8.63;5.10;;;17.50;99.90;;;;;;5010447;28;20022;-42
2021/07/11 05:50:04;;;;;;;11.55;5.07;;;17.50;99.90;;;;;;5009841;28;20084;-46
2021/07/11 05:52:30;;;;;;;8.60;4.55;;;17.50;99.90;;;;;;5010576;28;20391;-42
2021/07/11 05:54:55;;;;;;;10.10;4.30;;;17.50;99.90;;;;;;5010508;28;20073;-44
2021/07/11 05:57:21;;;;;;;13.07;4.50;;;17.50;99.90;;;;;;5010288;28;20030;-43
2021/07/11 05:59:46;;;;;;;6.28;4.65;;;17.40;99.90;;;;;;5009805;28;20423;-45
2021/07/11 06:02:12;;;;;;;15.50;4.90;;;17.50;99.90;;;;;;5010326;28;20034;-46
2021/07/11 06:04:38;;;;;;;12.30;5.10;;;17.50;99.90;;;;;;5009244;28;20037;-42
2021/07/11 06:07:03;;;;;;;20.70;5.47;;;17.50;99.90;;;;;;5010179;28;20033;-43
2021/07/11 06:09:29;;;;;;;9.27;4.85;;;17.50;99.90;;;;;;5009542;28;20029;-47
2021/07/11 06:11:54;;;;;;;16.65;5.80;;;17.50;99.90;;;;;;5010406;28;20025;-45
2021/07/11 06:14:20;;;;;;;12.95;5.40;;;17.50;99.90;;;;;;5010335;28;20030;-47
2021/07/11 06:16:46;;;;;;;7.20;4.78;;;17.50;99.90;;;;;;5010202;28;20026;-46
2021/07/11 06:19:13;;;;;;;6.45;4.25;;;17.50;99.90;;;;;;5009562;28;20033;-44
2021/07/11 06:21:38;;;;;;;8.77;4.32;;;17.50;99.90;;;;;;5010116;28;20034;-46
2021/07/11 06:24:04;;;;;;;6.60;4.40;;;17.50;99.90;;;;;;5010194;28;20076;-44
2021/07/11 06:26:29;;;;;;;8.57;4.80;;;17.50;99.90;;;;;;5010137;28;20030;-44
2021/07/11 06:28:55;;;;;;;7.45;4.45;;;17.50;99.90;;;;;;5009719;28;20236;-43
2021/07/11 06:31:20;;;;;;;6.43;4.60;;;17.50;99.90;;;;;;5010438;28;20049;-46
2021/07/11 06:33:46;;;;;;;9.75;3.88;;;17.50;99.90;;;;;;5009991;28;20092;-45
2021/07/11 06:36:12;;;;;;;9.45;4.50;;;17.50;99.90;;;;;;5019987;28;20037;-47
2021/07/11 06:38:37;;;;;;;8.13;4.50;;;17.50;99.90;;;;;;4995129;28;20033;-51
2021/07/11 06:41:03;;;;;;;9.43;3.80;;;17.50;99.90;;;;;;4995165;28;20022;-47
2021/07/11 06:43:28;;;;;;;4.05;3.70;;;17.50;99.90;;;;;;5032976;28;20048;-45
2021/07/11 06:45:54;;;;;;;9.20;3.85;;;17.60;99.90;;;;;;5033240;28;20486;-48
2021/07/11 06:48:19;;;;;;;10.55;4.10;;;17.60;99.90;;;;;;5031926;28;20021;-47
2021/07/11 06:50:45;;;;;;;8.07;4.10;;;17.70;99.90;;;;;;5020359;28;20022;-43
2021/07/11 06:53:11;;;;;;;6.07;3.40;;;17.70;99.90;;;;;;5013431;28;20394;-47
2021/07/11 06:55:37;;;;;;;8.52;4.15;;;17.80;99.90;;;;;;5013349;28;20030;-46
2021/07/11 06:58:03;;;;;;;4.55;3.30;;;17.80;99.90;;;;;;5027388;28;20383;-46
2021/07/11 07:00:28;;;;;;;7.10;3.67;;;17.80;99.90;;;;;;5032271;28;20033;-44
2021/07/11 07:02:54;;;;;;;7.53;4.10;;;17.80;99.90;;;;;;4996869;28;20053;-44
2021/07/11 07:05:21;;;;;;;6.25;3.92;;;17.90;99.90;;;;;;5019830;28;20093;-48
2021/07/11 07:07:47;;;;;;;6.30;3.53;;;17.80;99.90;;;;;;5032683;28;20041;-44
2021/07/11 07:10:14;;;;;;;18.95;4.20;;;17.80;99.90;;;;;;5021083;28;20490;-47
2021/07/11 07:12:42;;;;;;;6.65;3.20;;;17.90;99.90;;;;;;5034251;28;20021;-43
2021/07/11 07:15:09;;;;;;;6.68;3.55;;;17.90;99.90;;;;;;5031700;28;20060;-46
2021/07/11 07:17:34;;;;;;;2.97;2.78;;;17.90;99.90;;;;;;5032246;28;20021;-48
2021/07/11 07:20:00;;;;;;;6.13;3.10;;;17.80;99.90;;;;;;5031413;28;20599;-47
2021/07/11 07:22:26;;;;;;;5.00;3.40;;;17.80;99.90;;;;;;5047594;28;20403;-46
2021/07/11 07:24:51;;;;;;;7.45;4.15;;;17.80;99.90;;;;;;5047679;28;20057;-45
2021/07/11 07:27:17;;;;;;;9.80;3.50;;;17.80;99.90;;;;;;5033526;28;20107;-49
2021/07/11 07:29:42;;;;;;;10.48;3.25;;;17.90;99.90;;;;;;5031461;28;20042;-46
2021/07/11 07:32:08;;;;;;;4.53;3.08;;;18.00;99.90;;;;;;5031974;28;20447;-46
2021/07/11 07:34:34;;;;;;;4.72;2.60;;;18.00;99.90;;;;;;5030658;28;20065;-46
2021/07/11 07:36:59;;;;;;;4.45;3.42;;;18.00;99.90;;;;;;5032465;28;20032;-45
2021/07/11 07:39:28;;;;;;;3.78;2.97;;;18.10;99.90;;;;;;5027932;28;20452;-49
2021/07/11 07:41:55;;;;;;;16.83;3.53;;;18.00;99.90;;;;;;5028693;28;20048;-45
2021/07/11 07:44:21;;;;;;;5.65;3.13;;;18.00;99.90;;;;;;5014119;28;20034;-47
2021/07/11 07:46:47;;;;;;;3.63;2.78;;;18.00;99.90;;;;;;5032337;28;20533;-46
2021/07/11 07:49:12;;;;;;;2.58;2.47;;;18.00;99.90;;;;;;5031325;28;20372;-45
2021/07/11 07:51:40;;;;;;;3.45;2.92;;;18.00;99.90;;;;;;5030242;28;20524;-46
2021/07/11 07:54:05;;;;;;;4.95;3.33;;;18.00;99.90;;;;;;5017154;28;20048;-47
2021/07/11 07:56:31;;;;;;;3.13;2.60;;;18.00;99.90;;;;;;5016775;28;20030;-48
2021/07/11 07:58:56;;;;;;;5.15;2.83;;;18.00;99.90;;;;;;5031236;28;20037;-46
2021/07/11 08:01:22;;;;;;;6.75;3.22;;;18.00;99.90;;;;;;5024618;28;20029;-47
2021/07/11 08:03:47;;;;;;;4.60;3.10;;;18.00;99.90;;;;;;5012200;28;20034;-47
2021/07/11 08:06:14;;;;;;;4.88;2.85;;;18.10;99.90;;;;;;5024581;28;20049;-43
2021/07/11 08:08:39;;;;;;;5.60;2.60;;;18.10;99.90;;;;;;5030840;28;20484;-44
2021/07/11 08:11:07;;;;;;;6.97;2.55;;;18.20;99.90;;;;;;5031787;28;20051;-44
2021/07/11 08:13:36;;;;;;;3.35;2.60;;;18.10;99.90;;;;;;5009874;28;20034;-45
2021/07/11 08:16:03;;;;;;;7.15;3.60;;;18.10;99.90;;;;;;5011881;28;20033;-46
2021/07/11 08:18:28;;;;;;;3.05;2.90;;;18.10;99.90;;;;;;5012800;28;20040;-42
2021/07/11 08:20:54;;;;;;;10.80;3.17;;;18.10;99.90;;;;;;5020505;28;20033;-45
2021/07/11 08:23:19;;;;;;;2.83;2.63;;;18.10;99.90;;;;;;5031757;28;20025;-48
2021/07/11 08:25:45;;;;;;;3.63;2.75;;;18.10;99.90;;;;;;5031356;28;20026;-44
2021/07/11 08:28:10;;;;;;;3.05;2.78;;;18.10;99.90;;;;;;5030627;28;20048;-48
2021/07/11 08:30:36;;;;;;;11.18;3.00;;;18.10;99.90;;;;;;5030495;28;20036;-49
2021/07/11 08:33:02;;;;;;;4.22;2.53;;;18.10;99.90;;;;;;5031431;28;20029;-51
2021/07/11 08:35:28;;;;;;;10.00;2.72;;;18.10;99.90;;;;;;5031937;28;20029;-47
2021/07/11 08:37:54;;;;;;;2.67;2.42;;;18.10;99.90;;;;;;5030502;28;20497;-46
2021/07/11 08:40:19;;;;;;;3.92;2.90;;;18.10;99.90;;;;;;5012514;28;20029;-48
2021/07/11 08:42:50;;;;;;;8.20;3.45;;;18.20;99.90;;;;;;5030468;28;20037;-46
2021/07/11 08:45:16;;;;;;;3.47;3.17;;;18.20;99.90;;;;;;5012301;28;20026;-46
2021/07/11 08:47:42;;;;;;;6.75;2.85;;;18.20;99.90;;;;;;5011118;28;20022;-50
2021/07/11 08:50:10;;;;;;;3.40;2.65;;;18.30;99.90;;;;;;4993283;28;20422;-48
2021/07/11 08:52:37;;;;;;;8.32;2.65;;;18.30;99.90;;;;;;5014867;28;20045;-46
2021/07/11 08:55:18;;;;;;;5.53;3.42;;;18.40;99.90;;;;;;5025104;28;20040;-46
2021/07/11 08:57:49;;;;;;;4.70;3.67;;;18.50;99.90;;;;;;5013222;28;20026;-44
2021/07/11 09:00:16;;;;;;;5.93;3.10;;;18.60;99.90;;;;;;5029199;28;20013;-48
2021/07/11 09:02:41;;;;;;;4.03;2.80;;;18.70;99.90;;;;;;5015135;28;20077;-46
2021/07/11 09:05:19;;;;;;;6.30;3.33;;;18.70;99.90;;;;;;5029758;28;20482;-48
2021/07/11 09:07:56;;;;;;;3.13;2.80;;;18.80;99.90;;;;;;5030385;28;20026;-50
2021/07/11 09:10:29;;;;;;;3.30;2.80;;;18.80;99.90;;;;;;5029663;28;20386;-46
2021/07/11 09:12:54;;;;;;;6.28;3.55;;;18.90;99.90;;;;;;5031039;28;20406;-44
2021/07/11 09:15:34;;;;;;;5.30;3.22;;;18.90;99.90;;;;;;5030582;28;20021;-46
2021/07/11 09:18:00;;;;;;;3.97;2.90;;;18.90;99.90;;;;;;5030316;28;20406;-47
2021/07/11 09:20:26;;;;;;;3.42;3.05;;;18.90;99.90;;;;;;5015319;28;20509;-47
2021/07/11 09:23:02;;;;;;;6.82;3.10;;;18.80;99.90;;;;;;5021806;28;20037;-47
2021/07/11 09:25:29;;;;;;;4.43;3.08;;;18.90;99.90;;;;;;5030280;28;20038;-47
2021/07/11 09:27:55;;;;;;;8.45;3.35;;;18.90;99.90;;;;;;5028459;28;20108;-49
2021/07/11 09:30:21;;;;;;;4.57;3.35;;;18.90;99.90;;;;;;5029933;28;20097;-49
2021/07/11 09:32:51;;;;;;;3.50;3.03;;;18.90;99.90;;;;;;5030016;28;20566;-49
2021/07/11 09:35:19;;;;;;;3.72;3.03;;;18.90;99.90;;;;;;5030407;28;20025;-47
2021/07/11 09:37:53;;;;;;;3.72;3.30;;;18.90;99.90;;;;;;5030043;28;20033;-49
2021/07/11 09:40:24;;;;;;;3.15;2.85;;;18.90;99.90;;;;;;5029617;28;20117;-51
2021/07/11 09:42:54;;;;;;;5.60;2.92;;;18.80;99.90;;;;;;5030149;28;20115;-50
2021/07/11 09:45:23;;;;;;;3.25;2.78;;;18.80;99.90;;;;;;5029898;28;20032;-50
2021/07/11 09:47:51;;;;;;;5.20;3.58;;;18.80;99.90;;;;;;5029581;28;20283;-43
2021/07/11 09:50:22;;;;;;;3.00;2.80;;;18.80;99.90;;;;;;5029300;28;20113;-46
2021/07/11 09:52:52;;;;;;;4.05;3.25;;;18.90;99.90;;;;;;5026172;28;20021;-49
2021/07/11 09:55:21;;;;;;;3.30;3.10;;;19.00;99.90;;;;;;5030489;28;20029;-49
2021/07/11 09:57:58;;;;;;;4.65;4.25;;;19.00;99.90;;;;;;5030400;28;20029;-45
2021/07/11 10:00:29;;;;;;;4.10;3.80;;;19.10;99.90;;;;;;5029049;28;20029;-49
2021/07/11 10:02:56;;;;;;;28.73;18.45;;;19.30;99.90;;;;;;5018190;28;20038;-51
2021/07/11 10:05:23;;;;;;;6.40;4.35;;;19.50;99.90;;;;;;4992448;28;20439;-52
2021/07/11 10:07:49;;;;;;;4.97;4.13;;;19.60;99.90;;;;;;5011128;28;20034;-48
2021/07/11 10:10:21;;;;;;;16.17;8.27;;;19.70;99.90;;;;;;5009280;28;20116;-48
2021/07/11 10:12:47;;;;;;;6.20;4.28;;;19.90;99.90;;;;;;5019420;28;20030;-48
2021/07/11 10:15:15;;;;;;;4.13;3.80;;;20.00;99.90;;;;;;5028587;28;20022;-45
2021/07/11 10:18:12;;;;;;;5.47;4.10;;;20.10;99.90;;;;;;5031486;28;20472;-46
2021/07/11 10:20:47;;;;;;;3.90;3.60;;;20.20;99.90;;;;;;5011690;28;20041;-51
2021/07/11 10:23:24;;;;;;;4.53;3.55;;;20.30;99.90;;;;;;5033733;28;20021;-44
2021/07/11 10:26:02;;;;;;;4.70;3.60;;;20.40;99.90;;;;;;5020654;28;20037;-45
2021/07/11 10:28:33;;;;;;;4.43;3.90;;;20.40;99.90;;;;;;5033081;28;20475;-42
2021/07/11 10:30:59;;;;;;;7.75;4.18;;;20.40;99.90;;;;;;5032868;28;20470;-49
2021/07/11 10:33:26;;;;;;;5.80;4.20;;;20.30;99.90;;;;;;5033150;28;20076;-46
2021/07/11 10:36:05;;;;;;;5.22;4.38;;;20.20;99.90;;;;;;5033493;28;20137;-42
2021/07/11 10:38:33;;;;;;;4.28;3.90;;;20.20;99.90;;;;;;5033254;28;20033;-44
2021/07/11 10:41:28;;;;;;;10.05;4.10;;;20.20;99.90;;;;;;5032851;28;20037;-46
2021/07/11 10:44:12;;;;;;;4.03;3.72;;;20.30;99.90;;;;;;5033048;28;20509;-47
2021/07/11 10:46:46;;;;;;;4.50;4.07;;;20.20;99.90;;;;;;5032637;28;20492;-45
2021/07/11 10:49:14;;;;;;;4.85;4.43;;;20.30;99.90;;;;;;5032503;28;20112;-48
2021/07/11 10:51:42;;;;;;;6.93;4.78;;;20.30;99.90;;;;;;5032673;28;20025;-48
2021/07/11 10:54:22;;;;;;;8.80;4.38;;;20.20;99.90;;;;;;5032297;28;20024;-50
2021/07/11 10:56:48;;;;;;;5.13;4.53;;;20.20;99.90;;;;;;5030970;28;20033;-49
2021/07/11 10:59:30;;;;;;;8.02;4.03;;;20.20;99.90;;;;;;5030597;28;20440;-48
2021/07/11 11:01:57;;;;;;;5.45;4.10;;;20.20;99.90;;;;;;5031213;28;20112;-48
2021/07/11 11:04:22;;;;;;;4.65;4.25;;;20.40;99.90;;;;;;5023641;28;20109;-45
2021/07/11 11:06:48;;;;;;;5.28;4.10;;;20.60;99.90;;;;;;5031535;28;20112;-41
2021/07/11 11:09:40;;;;;;;4.88;4.20;;;20.70;99.90;;;;;;5031028;28;20036;-60
2021/07/11 11:12:21;;;;;;;7.47;4.30;;;20.80;99.90;;;;;;5018114;28;20036;-51
2021/07/11 11:14:59;;;;;;;4.50;3.35;;;20.90;99.90;;;;;;5029690;28;20028;-55
2021/07/11 11:17:33;;;;;;;4.80;3.28;;;20.70;99.90;;;;;;5031617;28;20076;-52
2021/07/11 11:20:00;;;;;;;6.35;3.38;;;20.60;99.90;;;;;;5030146;28;20026;-51
2021/07/11 11:22:26;;;;;;;3.55;3.22;;;20.50;99.90;;;;;;5032092;28;20018;-52
2021/07/11 11:24:52;;;;;;;4.10;3.05;;;20.50;99.90;;;;;;5032227;28;20033;-50
2021/07/11 11:27:43;;;;;;;3.75;3.45;;;20.50;99.90;;;;;;5031687;28;20041;-54
2021/07/11 11:30:17;;;;;;;4.35;3.15;;;20.60;99.90;;;;;;5027502;28;20116;-50
2021/07/11 11:32:51;;;;;;;3.45;2.97;;;20.70;99.90;;;;;;5031816;28;20023;-52
2021/07/11 11:35:18;;;;;;;2.95;2.75;;;20.90;99.90;;;;;;5030885;28;20022;-49
2021/07/11 11:37:55;;;;;;;3.42;3.08;;;21.00;99.90;;;;;;5031370;28;20412;-57
2021/07/11 11:40:23;;;;;;;3.55;2.92;;;21.00;99.90;;;;;;5028453;28;20033;-61
2021/07/11 11:42:50;;;;;;;3.25;2.90;;;21.00;99.90;;;;;;5020311;28;20030;-54
2021/07/11 11:45:19;;;;;;;3.97;2.88;;;21.10;99.90;;;;;;5031699;28;20017;-53
2021/07/11 11:47:45;;;;;;;2.38;2.28;;;21.10;99.90;;;;;;5032707;28;20025;-50
2021/07/11 11:50:15;;;;;;;2.78;2.58;;;21.10;99.90;;;;;;5030220;28;20371;-50
2021/07/11 11:52:41;;;;;;;2.33;2.13;;;21.20;99.90;;;;;;5032224;28;20022;-52
2021/07/11 11:55:08;;;;;;;2.85;2.65;;;21.20;99.90;;;;;;5016438;28;20152;-55
2021/07/11 11:57:33;;;;;;;2.65;2.45;;;21.30;99.90;;;;;;5030935;28;20037;-57
2021/07/11 11:59:59;;;;;;;2.63;2.42;;;21.30;99.90;;;;;;5015755;28;20068;-54
2021/07/11 12:02:25;;;;;;;3.28;2.67;;;21.40;99.90;;;;;;5014356;28;20101;-51
2021/07/11 12:04:51;;;;;;;2.83;2.63;;;21.60;99.90;;;;;;5031592;28;20025;-51
2021/07/11 12:07:17;;;;;;;6.68;2.42;;;21.90;99.90;;;;;;5031182;28;20091;-52
2021/07/11 12:09:43;;;;;;;2.65;2.45;;;22.00;99.90;;;;;;5027455;28;20398;-47
2021/07/11 12:12:12;;;;;;;2.45;2.33;;;22.10;99.90;;;;;;5031418;28;20034;-49
2021/07/11 12:14:39;;;;;;;3.38;2.50;;;22.20;99.90;;;;;;5031669;28;20026;-54
2021/07/11 12:17:14;;;;;;;2.78;2.42;;;22.40;99.90;;;;;;5030916;28;20050;-48
2021/07/11 12:19:48;;;;;;;3.50;2.93;;;22.40;99.90;;;;;;4993868;28;20034;-49
2021/07/11 12:22:29;;;;;;;3.47;2.37;;;22.40;99.90;;;;;;5026051;28;20272;-49
2021/07/11 12:27:41;;;;;;;2.22;2.13;;;22.30;99.90;;;;;;5030671;28;20041;-50
2021/07/11 12:30:09;;;;;;;27.58;21.50;;;22.20;99.60;;;;;;5030545;28;20508;-49
2021/07/11 12:32:44;;;;;;;9.90;8.85;;;22.30;99.80;;;;;;5031229;28;20380;-52
2021/07/11 12:35:11;;;;;;;7.90;7.10;;;22.20;99.90;;;;;;5029510;28;20028;-51
2021/07/11 12:37:50;;;;;;;3.35;2.55;;;22.20;99.90;;;;;;5029850;28;20039;-49
2021/07/11 12:40:20;;;;;;;2.28;2.17;;;22.20;99.90;;;;;;5030623;28;20485;-47
2021/07/11 12:42:45;;;;;;;3.50;2.60;;;22.20;99.90;;;;;;5031019;28;20043;-46
2021/07/11 12:45:18;;;;;;;2.10;1.80;;;22.10;99.90;;;;;;5031144;28;20021;-52
2021/07/11 12:47:53;;;;;;;1.92;1.42;;;22.20;99.50;;;;;;5030792;28;20021;-47
2021/07/11 12:50:31;;;;;;;1.45;1.40;;;22.10;98.30;;;;;;5031050;28;20052;-50
2021/07/11 12:52:57;;;;;;;1.70;1.60;;;22.10;98.70;;;;;;5031188;28;20037;-51
2021/07/11 12:55:22;;;;;;;1.70;1.60;;;22.20;98.70;;;;;;5031175;28;20035;-52